sensor_id;sensor_type;location;lat;lon;timestamp;pressure;altitude;pressure_sealevel;temperature;humidity
14120;BME280;7138;49.246;9.100;2023-02-11T00:00:17;100776.13;;;2.43;79.59
14120;BME280;7138;49.246;9.100;2023-02-11T00:02:43;100786.16;;;2.40;80.41
14120;BME280;7138;49.246;9.100;2023-02-11T00:05:10;100783.81;;;2.30;80.57
14120;BME280;7138;49.246;9.100;2023-02-11T00:07:35;100789.28;;;2.23;80.89
14120;BME280;7138;49.246;9.100;2023-02-11T00:10:04;100782.31;;;2.20;80.92
14120;BME280;7138;49.246;9.100;2023-02-11T00:12:32;100789.28;;;2.23;80.33
14120;BME280;7138;49.246;9.100;2023-02-11T00:14:58;100781.53;;;2.22;81.43
14120;BME280;7138;49.246;9.100;2023-02-11T00:17:24;100782.31;;;2.20;80.18
14120;BME280;7138;49.246;9.100;2023-02-11T00:19:50;100775.22;;;2.16;80.46
14120;BME280;7138;49.246;9.100;2023-02-11T00:22:17;100786.44;;;2.18;79.93
14120;BME280;7138;49.246;9.100;2023-02-11T00:24:44;100787.22;;;2.17;80.02
14120;BME280;7138;49.246;9.100;2023-02-11T00:27:11;100774.25;;;2.14;80.83
14120;BME280;7138;49.246;9.100;2023-02-11T00:29:37;100773.28;;;2.12;79.67
14120;BME280;7138;49.246;9.100;2023-02-11T00:32:04;100777.16;;;2.07;80.33
14120;BME280;7138;49.246;9.100;2023-02-11T00:34:30;100776.97;;;2.04;79.33
14120;BME280;7138;49.246;9.100;2023-02-11T00:36:56;100763.94;;;2.00;79.38
14120;BME280;7138;49.246;9.100;2023-02-11T00:39:22;100765.38;;;1.96;79.86
14120;BME280;7138;49.246;9.100;2023-02-11T00:41:48;100760.78;;;1.91;80.77
14120;BME280;7138;49.246;9.100;2023-02-11T00:44:15;100759.00;;;1.90;80.64
14120;BME280;7138;49.246;9.100;2023-02-11T00:46:41;100749.47;;;1.87;81.09
14120;BME280;7138;49.246;9.100;2023-02-11T00:49:07;100743.97;;;1.81;81.42
14120;BME280;7138;49.246;9.100;2023-02-11T00:51:33;100754.25;;;1.83;81.40
14120;BME280;7138;49.246;9.100;2023-02-11T00:53:59;100758.38;;;1.81;81.06
14120;BME280;7138;49.246;9.100;2023-02-11T00:56:25;100753.84;;;1.77;81.91
14120;BME280;7138;49.246;9.100;2023-02-11T00:58:51;100757.56;;;1.69;82.96
14120;BME280;7138;49.246;9.100;2023-02-11T01:01:19;100756.78;;;1.70;83.26
14120;BME280;7138;49.246;9.100;2023-02-11T01:03:45;100760.44;;;1.73;82.37
14120;BME280;7138;49.246;9.100;2023-02-11T01:06:11;100763.84;;;1.74;83.55
14120;BME280;7138;49.246;9.100;2023-02-11T01:08:37;100761.50;;;1.77;82.68
14120;BME280;7138;49.246;9.100;2023-02-11T01:11:07;100761.69;;;1.80;83.26
14120;BME280;7138;49.246;9.100;2023-02-11T01:13:36;100731.38;;;1.71;83.43
14120;BME280;7138;49.246;9.100;2023-02-11T01:16:05;100754.22;;;1.94;82.73
14120;BME280;7138;49.246;9.100;2023-02-11T01:18:33;100745.28;;;2.01;82.95
14120;BME280;7138;49.246;9.100;2023-02-11T01:20:59;100744.91;;;2.08;82.50
14120;BME280;7138;49.246;9.100;2023-02-11T01:23:25;100743.84;;;2.17;82.69
14120;BME280;7138;49.246;9.100;2023-02-11T01:25:52;100729.69;;;2.22;82.12
14120;BME280;7138;49.246;9.100;2023-02-11T01:28:22;100734.69;;;2.34;82.46
14120;BME280;7138;49.246;9.100;2023-02-11T01:30:49;100730.00;;;2.40;81.79
14120;BME280;7138;49.246;9.100;2023-02-11T01:33:16;100725.28;;;2.46;81.53
14120;BME280;7138;49.246;9.100;2023-02-11T01:35:45;100728.22;;;2.52;81.54
14120;BME280;7138;49.246;9.100;2023-02-11T01:38:16;100730.97;;;2.55;81.39
14120;BME280;7138;49.246;9.100;2023-02-11T01:40:47;100731.09;;;2.57;82.69
14120;BME280;7138;49.246;9.100;2023-02-11T01:43:13;100732.66;;;2.55;83.56
14120;BME280;7138;49.246;9.100;2023-02-11T01:46:29;100732.47;;;2.52;84.09
14120;BME280;7138;49.246;9.100;2023-02-11T01:49:02;100728.91;;;2.50;82.97
14120;BME280;7138;49.246;9.100;2023-02-11T01:51:36;100720.38;;;2.49;84.10
14120;BME280;7138;49.246;9.100;2023-02-11T01:54:06;100712.81;;;2.51;83.48
14120;BME280;7138;49.246;9.100;2023-02-11T01:56:56;100712.91;;;2.52;83.46
14120;BME280;7138;49.246;9.100;2023-02-11T01:59:47;100697.78;;;2.55;83.75
14120;BME280;7138;49.246;9.100;2023-02-11T02:02:20;100698.19;;;2.61;83.66
14120;BME280;7138;49.246;9.100;2023-02-11T02:04:55;100702.81;;;2.67;82.76
14120;BME280;7138;49.246;9.100;2023-02-11T02:07:32;100703.88;;;2.70;83.04
14120;BME280;7138;49.246;9.100;2023-02-11T02:10:05;100700.63;;;2.73;83.35
14120;BME280;7138;49.246;9.100;2023-02-11T02:12:32;100695.72;;;2.76;82.37
14120;BME280;7138;49.246;9.100;2023-02-11T02:15:28;100664.88;;;2.73;82.80
14120;BME280;7138;49.246;9.100;2023-02-11T02:18:10;100679.97;;;2.83;83.64
14120;BME280;7138;49.246;9.100;2023-02-11T02:21:37;100671.81;;;2.89;82.51
14120;BME280;7138;49.246;9.100;2023-02-11T02:24:39;100670.94;;;2.88;83.09
14120;BME280;7138;49.246;9.100;2023-02-11T02:27:31;100668.44;;;2.90;83.16
14120;BME280;7138;49.246;9.100;2023-02-11T02:33:40;100650.75;;;2.93;82.94
14120;BME280;7138;49.246;9.100;2023-02-11T02:36:17;100644.28;;;2.98;82.18
14120;BME280;7138;49.246;9.100;2023-02-11T02:38:54;100638.47;;;3.00;82.61
14120;BME280;7138;49.246;9.100;2023-02-11T02:41:27;100636.69;;;2.99;82.46
14120;BME280;7138;49.246;9.100;2023-02-11T02:43:54;100631.94;;;3.05;83.01
14120;BME280;7138;49.246;9.100;2023-02-11T02:46:24;100627.91;;;3.09;82.37
14120;BME280;7138;49.246;9.100;2023-02-11T02:48:53;100627.97;;;3.10;82.51
14120;BME280;7138;49.246;9.100;2023-02-11T02:51:47;100630.47;;;3.09;82.87
14120;BME280;7138;49.246;9.100;2023-02-11T02:55:01;100627.38;;;3.14;82.43
14120;BME280;7138;49.246;9.100;2023-02-11T02:57:37;100618.75;;;3.12;82.05
14120;BME280;7138;49.246;9.100;2023-02-11T03:00:21;100616.47;;;3.17;82.74
14120;BME280;7138;49.246;9.100;2023-02-11T03:03:08;100612.34;;;3.19;82.39
14120;BME280;7138;49.246;9.100;2023-02-11T03:05:47;100623.41;;;3.19;83.03
14120;BME280;7138;49.246;9.100;2023-02-11T03:08:22;100612.66;;;3.10;82.45
14120;BME280;7138;49.246;9.100;2023-02-11T03:10:50;100638.94;;;3.22;82.83
14120;BME280;7138;49.246;9.100;2023-02-11T03:13:23;100644.03;;;3.22;82.65
14120;BME280;7138;49.246;9.100;2023-02-11T03:15:54;100652.59;;;3.23;82.59
14120;BME280;7138;49.246;9.100;2023-02-11T03:18:26;100644.22;;;3.25;82.62
14120;BME280;7138;49.246;9.100;2023-02-11T03:20:56;100645.44;;;3.17;82.02
14120;BME280;7138;49.246;9.100;2023-02-11T03:23:27;100644.38;;;3.14;82.02
14120;BME280;7138;49.246;9.100;2023-02-11T03:25:58;100638.69;;;3.18;83.02
14120;BME280;7138;49.246;9.100;2023-02-11T03:28:31;100642.81;;;3.16;82.87
14120;BME280;7138;49.246;9.100;2023-02-11T03:31:10;100637.78;;;3.17;82.47
14120;BME280;7138;49.246;9.100;2023-02-11T03:33:45;100630.66;;;3.12;83.79
14120;BME280;7138;49.246;9.100;2023-02-11T03:36:20;100636.47;;;3.09;83.29
14120;BME280;7138;49.246;9.100;2023-02-11T03:38:53;100632.13;;;3.08;84.24
14120;BME280;7138;49.246;9.100;2023-02-11T03:41:23;100634.16;;;3.14;84.05
14120;BME280;7138;49.246;9.100;2023-02-11T03:43:52;100632.13;;;3.08;83.67
14120;BME280;7138;49.246;9.100;2023-02-11T03:46:32;100623.31;;;3.03;84.63
14120;BME280;7138;49.246;9.100;2023-02-11T03:49:02;100623.72;;;2.96;85.09
14120;BME280;7138;49.246;9.100;2023-02-11T03:51:32;100612.53;;;2.94;84.42
14120;BME280;7138;49.246;9.100;2023-02-11T03:54:02;100611.25;;;3.01;85.05
14120;BME280;7138;49.246;9.100;2023-02-11T03:56:38;100607.81;;;3.00;84.24
14120;BME280;7138;49.246;9.100;2023-02-11T03:59:04;100620.25;;;3.09;84.34
14120;BME280;7138;49.246;9.100;2023-02-11T04:01:30;100617.44;;;3.19;83.64
14120;BME280;7138;49.246;9.100;2023-02-11T04:03:56;100616.94;;;3.24;84.18
14120;BME280;7138;49.246;9.100;2023-02-11T04:06:22;100622.63;;;3.20;83.33
14120;BME280;7138;49.246;9.100;2023-02-11T04:08:49;100609.50;;;3.29;83.35
14120;BME280;7138;49.246;9.100;2023-02-11T04:11:15;100613.91;;;3.31;83.67
14120;BME280;7138;49.246;9.100;2023-02-11T04:13:41;100613.84;;;3.30;83.20
14120;BME280;7138;49.246;9.100;2023-02-11T04:16:06;100620.03;;;3.34;83.72
14120;BME280;7138;49.246;9.100;2023-02-11T04:18:32;100626.09;;;3.36;83.18
14120;BME280;7138;49.246;9.100;2023-02-11T04:20:58;100622.13;;;3.41;82.62
14120;BME280;7138;49.246;9.100;2023-02-11T04:23:24;100617.28;;;3.45;82.90
14120;BME280;7138;49.246;9.100;2023-02-11T04:25:51;100629.19;;;3.45;83.50
14120;BME280;7138;49.246;9.100;2023-02-11T04:28:17;100631.75;;;3.45;83.15
14120;BME280;7138;49.246;9.100;2023-02-11T04:30:43;100630.31;;;3.50;83.14
14120;BME280;7138;49.246;9.100;2023-02-11T04:33:08;100629.00;;;3.56;83.15
14120;BME280;7138;49.246;9.100;2023-02-11T04:35:34;100625.38;;;3.53;82.77
14120;BME280;7138;49.246;9.100;2023-02-11T04:38:00;100619.31;;;3.51;83.15
14120;BME280;7138;49.246;9.100;2023-02-11T04:40:26;100605.94;;;3.55;82.28
14120;BME280;7138;49.246;9.100;2023-02-11T04:42:53;100600.16;;;3.59;82.16
14120;BME280;7138;49.246;9.100;2023-02-11T04:45:19;100599.31;;;3.58;82.40
14120;BME280;7138;49.246;9.100;2023-02-11T04:47:45;100588.38;;;3.61;82.45
14120;BME280;7138;49.246;9.100;2023-02-11T04:50:11;100587.38;;;3.59;82.46
14120;BME280;7138;49.246;9.100;2023-02-11T04:52:37;100580.25;;;3.68;82.17
14120;BME280;7138;49.246;9.100;2023-02-11T04:55:03;100572.75;;;3.71;81.69
14120;BME280;7138;49.246;9.100;2023-02-11T04:57:29;100563.84;;;3.79;81.78
14120;BME280;7138;49.246;9.100;2023-02-11T04:59:56;100561.53;;;3.83;81.63
14120;BME280;7138;49.246;9.100;2023-02-11T05:02:22;100571.25;;;3.89;81.50
14120;BME280;7138;49.246;9.100;2023-02-11T05:04:48;100569.63;;;3.91;81.28
14120;BME280;7138;49.246;9.100;2023-02-11T05:07:13;100559.31;;;3.90;81.97
14120;BME280;7138;49.246;9.100;2023-02-11T05:09:39;100567.25;;;3.94;81.73
14120;BME280;7138;49.246;9.100;2023-02-11T05:12:06;100580.03;;;3.94;81.16
14120;BME280;7138;49.246;9.100;2023-02-11T05:14:32;100579.31;;;3.97;81.70
14120;BME280;7138;49.246;9.100;2023-02-11T05:16:59;100584.44;;;3.97;80.95
14120;BME280;7138;49.246;9.100;2023-02-11T05:19:25;100597.41;;;4.00;81.06
14120;BME280;7138;49.246;9.100;2023-02-11T05:21:51;100600.50;;;3.94;80.62
14120;BME280;7138;49.246;9.100;2023-02-11T05:24:18;100596.91;;;3.91;80.65
14120;BME280;7138;49.246;9.100;2023-02-11T05:26:44;100595.22;;;3.91;80.50
14120;BME280;7138;49.246;9.100;2023-02-11T05:29:10;100603.50;;;3.87;81.02
14120;BME280;7138;49.246;9.100;2023-02-11T05:31:35;100605.84;;;3.82;80.23
14120;BME280;7138;49.246;9.100;2023-02-11T05:34:03;100607.25;;;3.63;81.44
14120;BME280;7138;49.246;9.100;2023-02-11T05:36:29;100621.97;;;3.67;81.77
14120;BME280;7138;49.246;9.100;2023-02-11T05:38:55;100615.44;;;3.72;80.82
14120;BME280;7138;49.246;9.100;2023-02-11T05:41:21;100612.50;;;3.80;81.19
14120;BME280;7138;49.246;9.100;2023-02-11T05:43:47;100605.91;;;3.84;81.24
14120;BME280;7138;49.246;9.100;2023-02-11T05:46:16;100595.06;;;3.88;81.33
14120;BME280;7138;49.246;9.100;2023-02-11T05:48:42;100583.94;;;3.88;81.09
14120;BME280;7138;49.246;9.100;2023-02-11T05:51:10;100586.88;;;3.79;81.75
14120;BME280;7138;49.246;9.100;2023-02-11T05:53:36;100574.06;;;3.79;82.03
14120;BME280;7138;49.246;9.100;2023-02-11T05:56:02;100574.78;;;3.76;81.51
14120;BME280;7138;49.246;9.100;2023-02-11T05:58:28;100578.56;;;3.68;82.65
14120;BME280;7138;49.246;9.100;2023-02-11T06:00:53;100570.81;;;3.67;81.97
14120;BME280;7138;49.246;9.100;2023-02-11T06:03:20;100580.53;;;3.58;82.66
14120;BME280;7138;49.246;9.100;2023-02-11T06:05:46;100585.66;;;3.58;82.67
14120;BME280;7138;49.246;9.100;2023-02-11T06:08:13;100589.53;;;3.51;82.26
14120;BME280;7138;49.246;9.100;2023-02-11T06:10:39;100578.69;;;3.55;82.84
14120;BME280;7138;49.246;9.100;2023-02-11T06:15:43;100578.50;;;3.52;83.00
14120;BME280;7138;49.246;9.100;2023-02-11T06:18:09;100579.53;;;3.56;83.14
14120;BME280;7138;49.246;9.100;2023-02-11T06:20:35;100589.00;;;3.57;82.83
14120;BME280;7138;49.246;9.100;2023-02-11T06:23:02;100579.03;;;3.61;82.58
14120;BME280;7138;49.246;9.100;2023-02-11T06:25:29;100581.22;;;3.70;82.13
14120;BME280;7138;49.246;9.100;2023-02-11T06:27:55;100570.53;;;3.77;82.75
14120;BME280;7138;49.246;9.100;2023-02-11T06:30:20;100581.09;;;3.83;82.67
14120;BME280;7138;49.246;9.100;2023-02-11T06:32:46;100589.06;;;3.88;82.68
14120;BME280;7138;49.246;9.100;2023-02-11T06:35:13;100584.88;;;3.90;82.41
14120;BME280;7138;49.246;9.100;2023-02-11T06:37:39;100574.75;;;3.91;82.12
14120;BME280;7138;49.246;9.100;2023-02-11T06:40:06;100579.09;;;3.92;82.19
14120;BME280;7138;49.246;9.100;2023-02-11T06:42:33;100573.25;;;3.95;82.55
14120;BME280;7138;49.246;9.100;2023-02-11T06:45:00;100579.31;;;3.97;82.40
14120;BME280;7138;49.246;9.100;2023-02-11T06:47:27;100578.59;;;3.99;81.69
14120;BME280;7138;49.246;9.100;2023-02-11T06:49:52;100574.47;;;4.01;82.45
14120;BME280;7138;49.246;9.100;2023-02-11T06:52:18;100569.38;;;4.01;82.15
14120;BME280;7138;49.246;9.100;2023-02-11T06:54:44;100576.38;;;4.05;82.09
14120;BME280;7138;49.246;9.100;2023-02-11T06:57:10;100582.31;;;4.04;81.77
14120;BME280;7138;49.246;9.100;2023-02-11T06:59:37;100590.63;;;4.00;81.77
14120;BME280;7138;49.246;9.100;2023-02-11T07:02:03;100596.34;;;3.96;81.87
14120;BME280;7138;49.246;9.100;2023-02-11T07:04:29;100593.72;;;3.95;82.23
14120;BME280;7138;49.246;9.100;2023-02-11T07:06:54;100595.56;;;3.97;82.14
14120;BME280;7138;49.246;9.100;2023-02-11T07:09:20;100588.13;;;4.02;81.90
14120;BME280;7138;49.246;9.100;2023-02-11T07:11:46;100595.13;;;4.04;81.86
14120;BME280;7138;49.246;9.100;2023-02-11T07:14:12;100590.19;;;4.07;82.37
14120;BME280;7138;49.246;9.100;2023-02-11T07:16:39;100590.25;;;4.09;82.08
14120;BME280;7138;49.246;9.100;2023-02-11T07:19:05;100588.56;;;4.09;81.99
14120;BME280;7138;49.246;9.100;2023-02-11T07:21:31;100585.41;;;4.13;82.20
14120;BME280;7138;49.246;9.100;2023-02-11T07:23:57;100583.84;;;4.17;82.18
14120;BME280;7138;49.246;9.100;2023-02-11T07:26:23;100578.91;;;4.20;81.84
14120;BME280;7138;49.246;9.100;2023-02-11T07:28:54;100575.66;;;4.22;81.76
14120;BME280;7138;49.246;9.100;2023-02-11T07:31:23;100569.88;;;4.26;82.06
14120;BME280;7138;49.246;9.100;2023-02-11T07:33:53;100571.81;;;4.30;81.84
14120;BME280;7138;49.246;9.100;2023-02-11T07:36:19;100566.09;;;4.34;81.87
14120;BME280;7138;49.246;9.100;2023-02-11T07:38:45;100563.84;;;4.40;82.00
14120;BME280;7138;49.246;9.100;2023-02-11T07:41:14;100571.84;;;4.47;81.70
14120;BME280;7138;49.246;9.100;2023-02-11T07:43:42;100582.25;;;4.50;81.77
14120;BME280;7138;49.246;9.100;2023-02-11T07:46:11;100564.34;;;4.50;81.70
14120;BME280;7138;49.246;9.100;2023-02-11T07:48:37;100580.34;;;4.62;81.89
14120;BME280;7138;49.246;9.100;2023-02-11T07:51:11;100587.47;;;4.67;81.43
14120;BME280;7138;49.246;9.100;2023-02-11T07:53:38;100584.41;;;4.74;81.67
14120;BME280;7138;49.246;9.100;2023-02-11T07:56:06;100575.38;;;4.81;81.41
14120;BME280;7138;49.246;9.100;2023-02-11T07:58:33;100585.22;;;4.89;81.99
14120;BME280;7138;49.246;9.100;2023-02-11T08:01:02;100580.41;;;4.95;81.21
14120;BME280;7138;49.246;9.100;2023-02-11T08:03:28;100583.97;;;4.97;81.66
14120;BME280;7138;49.246;9.100;2023-02-11T08:05:54;100580.81;;;5.03;81.69
14120;BME280;7138;49.246;9.100;2023-02-11T08:08:22;100574.25;;;5.08;81.43
14120;BME280;7138;49.246;9.100;2023-02-11T08:10:50;100564.28;;;5.14;81.24
14120;BME280;7138;49.246;9.100;2023-02-11T08:13:15;100564.22;;;5.13;81.48
14120;BME280;7138;49.246;9.100;2023-02-11T08:15:41;100572.34;;;5.04;81.40
14120;BME280;7138;49.246;9.100;2023-02-11T08:18:07;100567.22;;;5.04;81.52
14120;BME280;7138;49.246;9.100;2023-02-11T08:20:33;100572.34;;;5.04;81.19
14120;BME280;7138;49.246;9.100;2023-02-11T08:22:59;100574.50;;;4.96;80.71
14120;BME280;7138;49.246;9.100;2023-02-11T08:25:27;100570.31;;;4.98;81.38
14120;BME280;7138;49.246;9.100;2023-02-11T08:27:53;100561.78;;;4.98;81.59
14120;BME280;7138;49.246;9.100;2023-02-11T08:30:19;100556.06;;;5.04;82.48
14120;BME280;7138;49.246;9.100;2023-02-11T08:32:45;100561.53;;;4.93;81.23
14120;BME280;7138;49.246;9.100;2023-02-11T08:35:12;100567.69;;;4.81;81.52
14120;BME280;7138;49.246;9.100;2023-02-11T08:37:38;100567.44;;;4.92;82.29
14120;BME280;7138;49.246;9.100;2023-02-11T08:40:05;100565.28;;;5.00;81.83
14120;BME280;7138;49.246;9.100;2023-02-11T08:42:32;100576.31;;;5.15;81.03
14120;BME280;7138;49.246;9.100;2023-02-11T08:44:58;100581.19;;;5.27;80.73
14120;BME280;7138;49.246;9.100;2023-02-11T08:47:24;100577.34;;;5.19;80.87
14120;BME280;7138;49.246;9.100;2023-02-11T08:49:50;100585.25;;;5.39;81.51
14120;BME280;7138;49.246;9.100;2023-02-11T08:52:15;100590.78;;;5.47;80.73
14120;BME280;7138;49.246;9.100;2023-02-11T08:54:41;100578.47;;;5.58;79.84
14120;BME280;7138;49.246;9.100;2023-02-11T08:57:07;100589.91;;;5.64;79.54
14120;BME280;7138;49.246;9.100;2023-02-11T08:59:34;100590.88;;;5.84;79.93
14120;BME280;7138;49.246;9.100;2023-02-11T09:02:00;100600.16;;;5.98;79.31
14120;BME280;7138;49.246;9.100;2023-02-11T09:04:26;100595.03;;;5.98;78.84
14120;BME280;7138;49.246;9.100;2023-02-11T09:06:52;100596.13;;;6.03;79.39
14120;BME280;7138;49.246;9.100;2023-02-11T09:09:18;100589.09;;;6.17;78.30
14120;BME280;7138;49.246;9.100;2023-02-11T09:11:44;100579.16;;;6.24;79.10
14120;BME280;7138;49.246;9.100;2023-02-11T09:14:17;100591.13;;;6.24;78.18
14120;BME280;7138;49.246;9.100;2023-02-11T09:16:46;100572.81;;;6.35;79.74
14120;BME280;7138;49.246;9.100;2023-02-11T09:19:12;100580.56;;;6.54;78.16
14120;BME280;7138;49.246;9.100;2023-02-11T09:21:38;100574.16;;;6.64;78.42
14120;BME280;7138;49.246;9.100;2023-02-11T09:24:05;100594.53;;;6.79;77.03
14120;BME280;7138;49.246;9.100;2023-02-11T09:26:35;100589.13;;;6.92;77.67
14120;BME280;7138;49.246;9.100;2023-02-11T09:29:03;100587.63;;;6.97;76.00
14120;BME280;7138;49.246;9.100;2023-02-11T09:31:31;100587.72;;;6.98;76.52
14120;BME280;7138;49.246;9.100;2023-02-11T09:34:01;100600.63;;;7.00;75.89
14120;BME280;7138;49.246;9.100;2023-02-11T09:36:33;100599.72;;;6.99;75.61
14120;BME280;7138;49.246;9.100;2023-02-11T09:39:03;100601.50;;;7.00;75.98
14120;BME280;7138;49.246;9.100;2023-02-11T09:41:45;100605.75;;;7.00;75.24
14120;BME280;7138;49.246;9.100;2023-02-11T09:44:19;100595.25;;;7.14;78.06
14120;BME280;7138;49.246;9.100;2023-02-11T09:46:53;100595.13;;;7.31;76.59
14120;BME280;7138;49.246;9.100;2023-02-11T09:49:24;100604.06;;;7.20;75.92
14120;BME280;7138;49.246;9.100;2023-02-11T09:52:02;100605.34;;;7.29;77.11
14120;BME280;7138;49.246;9.100;2023-02-11T09:54:36;100600.28;;;7.51;76.92
14120;BME280;7138;49.246;9.100;2023-02-11T09:57:04;100593.19;;;7.66;77.23
14120;BME280;7138;49.246;9.100;2023-02-11T09:59:31;100601.91;;;7.91;75.98
14120;BME280;7138;49.246;9.100;2023-02-11T10:02:01;100600.69;;;8.02;75.63
14120;BME280;7138;49.246;9.100;2023-02-11T10:04:56;100594.06;;;8.08;74.43
14120;BME280;7138;49.246;9.100;2023-02-11T10:07:35;100592.94;;;8.02;75.20
14120;BME280;7138;49.246;9.100;2023-02-11T10:10:12;100592.47;;;8.12;75.28
14120;BME280;7138;49.246;9.100;2023-02-11T10:13:01;100599.22;;;8.08;73.76
14120;BME280;7138;49.246;9.100;2023-02-11T10:15:41;100593.88;;;8.04;75.21
14120;BME280;7138;49.246;9.100;2023-02-11T10:18:39;100590.97;;;8.17;75.21
14120;BME280;7138;49.246;9.100;2023-02-11T10:21:26;100592.41;;;8.31;75.32
14120;BME280;7138;49.246;9.100;2023-02-11T10:24:00;100593.78;;;8.44;75.38
14120;BME280;7138;49.246;9.100;2023-02-11T10:26:30;100591.13;;;8.42;74.57
14120;BME280;7138;49.246;9.100;2023-02-11T10:29:01;100592.31;;;8.50;75.18
14120;BME280;7138;49.246;9.100;2023-02-11T10:31:37;100586.44;;;8.54;73.55
14120;BME280;7138;49.246;9.100;2023-02-11T10:34:08;100590.53;;;8.71;75.22
14120;BME280;7138;49.246;9.100;2023-02-11T10:36:39;100580.28;;;8.97;74.58
14120;BME280;7138;49.246;9.100;2023-02-11T10:39:12;100591.69;;;9.03;74.52
14120;BME280;7138;49.246;9.100;2023-02-11T10:41:42;100582.66;;;9.14;73.95
14120;BME280;7138;49.246;9.100;2023-02-11T10:44:20;100576.53;;;9.36;72.83
14120;BME280;7138;49.246;9.100;2023-02-11T10:46:48;100579.56;;;9.50;72.99
14120;BME280;7138;49.246;9.100;2023-02-11T10:49:35;100581.53;;;9.57;72.04
14120;BME280;7138;49.246;9.100;2023-02-11T10:52:20;100579.34;;;9.42;71.14
14120;BME280;7138;49.246;9.100;2023-02-11T10:54:57;100586.53;;;9.27;71.25
14120;BME280;7138;49.246;9.100;2023-02-11T10:57:29;100567.69;;;9.29;72.21
14120;BME280;7138;49.246;9.100;2023-02-11T11:00:00;100577.91;;;9.26;71.57
14120;BME280;7138;49.246;9.100;2023-02-11T11:02:29;100600.41;;;9.30;71.70
14120;BME280;7138;49.246;9.100;2023-02-11T11:05:03;100592.78;;;9.33;72.27
14120;BME280;7138;49.246;9.100;2023-02-11T11:07:33;100582.97;;;9.49;72.56
14120;BME280;7138;49.246;9.100;2023-02-11T11:10:04;100581.00;;;9.67;72.59
14120;BME280;7138;49.246;9.100;2023-02-11T11:12:38;100579.69;;;9.78;72.68
14120;BME280;7138;49.246;9.100;2023-02-11T11:15:19;100577.69;;;9.69;72.12
14120;BME280;7138;49.246;9.100;2023-02-11T11:17:47;100581.00;;;9.67;71.52
14120;BME280;7138;49.246;9.100;2023-02-11T11:20:23;100574.81;;;9.62;71.89
14120;BME280;7138;49.246;9.100;2023-02-11T11:23:13;100579.28;;;9.66;71.79
14120;BME280;7138;49.246;9.100;2023-02-11T11:25:43;100569.94;;;9.69;71.94
14120;BME280;7138;49.246;9.100;2023-02-11T11:28:22;100575.09;;;9.69;71.86
14120;BME280;7138;49.246;9.100;2023-02-11T11:30:52;100572.75;;;9.77;72.37
14120;BME280;7138;49.246;9.100;2023-02-11T11:33:22;100575.00;;;9.66;72.79
14120;BME280;7138;49.246;9.100;2023-02-11T11:36:02;100570.63;;;9.65;72.29
14120;BME280;7138;49.246;9.100;2023-02-11T11:38:31;100586.63;;;9.80;72.92
14120;BME280;7138;49.246;9.100;2023-02-11T11:41:20;100572.84;;;9.80;72.49
14120;BME280;7138;49.246;9.100;2023-02-11T11:44:03;100579.69;;;9.78;72.20
14120;BME280;7138;49.246;9.100;2023-02-11T11:46:41;100588.09;;;9.72;71.64
14120;BME280;7138;49.246;9.100;2023-02-11T11:49:24;100587.03;;;9.93;71.85
14120;BME280;7138;49.246;9.100;2023-02-11T11:51:59;100587.84;;;9.92;71.43
14120;BME280;7138;49.246;9.100;2023-02-11T11:54:32;100593.28;;;9.72;71.63
14120;BME280;7138;49.246;9.100;2023-02-11T11:57:10;100590.88;;;9.78;71.95
14120;BME280;7138;49.246;9.100;2023-02-11T11:59:38;100588.50;;;9.84;72.56
14120;BME280;7138;49.246;9.100;2023-02-11T12:02:29;100584.94;;;9.81;71.78
14120;BME280;7138;49.246;9.100;2023-02-11T12:05:02;100587.56;;;9.82;71.84
14120;BME280;7138;49.246;9.100;2023-02-11T12:07:49;100590.50;;;9.93;72.11
14120;BME280;7138;49.246;9.100;2023-02-11T12:10:34;100588.16;;;10.01;73.09
14120;BME280;7138;49.246;9.100;2023-02-11T12:13:20;100587.44;;;10.05;71.86
14120;BME280;7138;49.246;9.100;2023-02-11T12:16:03;100581.16;;;10.23;72.63
14120;BME280;7138;49.246;9.100;2023-02-11T12:19:12;100577.44;;;10.42;71.80
14120;BME280;7138;49.246;9.100;2023-02-11T12:21:53;100564.38;;;10.67;72.72
14120;BME280;7138;49.246;9.100;2023-02-11T12:24:39;100564.38;;;10.67;72.11
14120;BME280;7138;49.246;9.100;2023-02-11T12:27:17;100558.69;;;10.79;71.44
14120;BME280;7138;49.246;9.100;2023-02-11T12:30:01;100560.25;;;10.74;70.30
14120;BME280;7138;49.246;9.100;2023-02-11T12:32:36;100558.53;;;10.73;70.05
14120;BME280;7138;49.246;9.100;2023-02-11T12:35:31;100552.72;;;10.81;70.20
14120;BME280;7138;49.246;9.100;2023-02-11T12:38:19;100549.38;;;10.85;70.66
14120;BME280;7138;49.246;9.100;2023-02-11T12:41:06;100547.63;;;10.84;70.39
14120;BME280;7138;49.246;9.100;2023-02-11T12:43:43;100538.13;;;10.83;71.21
14120;BME280;7138;49.246;9.100;2023-02-11T12:46:39;100536.09;;;11.05;71.35
14120;BME280;7138;49.246;9.100;2023-02-11T12:52:37;100531.56;;;11.29;69.54
14120;BME280;7138;49.246;9.100;2023-02-11T12:55:16;100546.56;;;11.40;69.76
14120;BME280;7138;49.246;9.100;2023-02-11T12:57:45;100548.25;;;11.40;69.61
14120;BME280;7138;49.246;9.100;2023-02-11T13:00:18;100542.47;;;11.48;69.32
14120;BME280;7138;49.246;9.100;2023-02-11T13:02:54;100544.13;;;11.46;69.75
14120;BME280;7138;49.246;9.100;2023-02-11T13:05:28;100536.59;;;11.23;69.37
14120;BME280;7138;49.246;9.100;2023-02-11T13:08:03;100524.13;;;11.41;69.97
14120;BME280;7138;49.246;9.100;2023-02-11T13:10:35;100519.25;;;11.53;69.88
14120;BME280;7138;49.246;9.100;2023-02-11T13:13:12;100521.84;;;11.53;70.08
14120;BME280;7138;49.246;9.100;2023-02-11T13:15:49;100514.81;;;11.49;69.17
14120;BME280;7138;49.246;9.100;2023-02-11T13:18:31;100515.91;;;11.57;68.89
14120;BME280;7138;49.246;9.100;2023-02-11T13:21:25;100536.75;;;11.29;68.41
14120;BME280;7138;49.246;9.100;2023-02-11T13:24:04;100521.63;;;11.44;69.88
14120;BME280;7138;49.246;9.100;2023-02-11T13:26:41;100519.63;;;11.34;69.87
14120;BME280;7138;49.246;9.100;2023-02-11T13:29:24;100510.13;;;11.34;70.25
14120;BME280;7138;49.246;9.100;2023-02-11T13:31:55;100505.91;;;11.38;69.79
14120;BME280;7138;49.246;9.100;2023-02-11T13:34:54;100501.63;;;11.38;69.30
14120;BME280;7138;49.246;9.100;2023-02-11T13:37:23;100502.69;;;11.46;69.87
14120;BME280;7138;49.246;9.100;2023-02-11T13:39:59;100510.28;;;11.39;69.83
14120;BME280;7138;49.246;9.100;2023-02-11T13:42:26;100513.25;;;11.54;69.76